createdAt,value
2022-09-11T00:00:49.616Z,101690.28
2022-09-11T00:02:51.099Z,101685.94
2022-09-11T00:04:52.534Z,101683.34
2022-09-11T00:06:53.956Z,101681.50
2022-09-11T00:09:01.268Z,101685.94
2022-09-11T00:11:17.383Z,101688.66
2022-09-11T00:13:21.777Z,101685.06
2022-09-11T00:15:23.228Z,101697.44
2022-09-11T00:17:24.657Z,101683.22
2022-09-11T00:19:28.155Z,101688.50
2022-09-11T00:21:29.873Z,101689.38
2022-09-11T00:23:31.665Z,101691.09
2022-09-11T00:25:35.064Z,101691.09
2022-09-11T00:27:36.560Z,101691.97
2022-09-11T00:29:37.991Z,101689.31
2022-09-11T00:31:39.870Z,101689.38
2022-09-11T00:33:42.323Z,101688.50
2022-09-11T00:35:44.890Z,101695.59
2022-09-11T00:37:48.236Z,101691.19
2022-09-11T00:39:50.285Z,101693.00
2022-09-11T00:41:51.794Z,101695.69
2022-09-11T00:43:59.659Z,101698.34
2022-09-11T00:46:05.709Z,101700.16
2022-09-11T00:48:10.683Z,101696.63
2022-09-11T00:50:20.469Z,101702.84
2022-09-11T00:52:26.967Z,101706.38
2022-09-11T00:54:35.559Z,101704.69
2022-09-11T00:56:37.419Z,101703.22
2022-09-11T00:58:44.136Z,101710.13
2022-09-11T01:00:46.171Z,101705.69
2022-09-11T01:02:51.160Z,101714.59
2022-09-11T01:04:54.223Z,101708.44
2022-09-11T01:06:57.543Z,101713.75
2022-09-11T01:08:59.287Z,101712.91
2022-09-11T01:11:26.324Z,101720.00
2022-09-11T01:13:42.337Z,101714.75
2022-09-11T01:15:52.070Z,101713.00
2022-09-11T01:17:56.399Z,101715.66
2022-09-11T01:20:19.235Z,101717.50
2022-09-11T01:22:51.409Z,101721.06
2022-09-11T01:25:21.961Z,101714.97
2022-09-11T01:27:42.640Z,101725.56
2022-09-11T01:30:13.262Z,101717.63
2022-09-11T01:32:15.181Z,101712.22
2022-09-11T01:34:25.772Z,101712.22
2022-09-11T01:36:36.272Z,101710.56
2022-09-11T01:38:54.261Z,101708.91
2022-09-11T01:41:21.807Z,101718.69
2022-09-11T01:43:27.080Z,101709.91
2022-09-11T01:45:30.117Z,101721.44
2022-09-11T01:47:35.046Z,101717.97
2022-09-11T01:49:50.910Z,101733.94
2022-09-11T01:51:57.785Z,101740.22
2022-09-11T01:54:02.356Z,101731.47
2022-09-11T01:56:10.308Z,101736.88
2022-09-11T01:58:19.201Z,101737.88
2022-09-11T02:00:20.878Z,101735.31
2022-09-11T02:02:29.579Z,101740.66
2022-09-11T02:04:34.991Z,101747.00
2022-09-11T02:06:48.300Z,101746.06
2022-09-11T02:09:06.536Z,101749.50
2022-09-11T02:11:11.285Z,101744.13
2022-09-11T02:13:27.804Z,101740.47
2022-09-11T02:15:39.015Z,101742.19
2022-09-11T02:17:53.913Z,101737.69
2022-09-11T02:19:58.042Z,101737.59
2022-09-11T02:21:59.820Z,101746.41
2022-09-11T02:24:02.111Z,101735.72
2022-09-11T02:26:05.759Z,101744.47
2022-09-11T02:28:07.241Z,101743.59
2022-09-11T02:30:09.327Z,101746.31
2022-09-11T02:32:11.615Z,101743.69
2022-09-11T02:34:14.903Z,101743.75
2022-09-11T02:36:43.749Z,101750.00
2022-09-11T02:38:52.625Z,101746.47
2022-09-11T02:41:10.052Z,101743.88
2022-09-11T02:43:33.060Z,101749.19
2022-09-11T02:46:05.551Z,101748.34
2022-09-11T02:48:25.290Z,101749.22
2022-09-11T02:50:48.263Z,101758.94
2022-09-11T02:53:07.588Z,101750.16
2022-09-11T02:55:20.664Z,101759.03
2022-09-11T02:57:39.211Z,101756.38
2022-09-11T02:59:52.847Z,101755.66
2022-09-11T03:01:56.424Z,101753.72
2022-09-11T03:03:57.965Z,101758.94
2022-09-11T03:05:59.495Z,101757.97
2022-09-11T03:08:04.389Z,101758.81
2022-09-11T03:10:11.152Z,101768.50
2022-09-11T03:12:12.605Z,101759.72
2022-09-11T03:14:14.489Z,101759.75
2022-09-11T03:16:15.967Z,101767.72
2022-09-11T03:18:17.509Z,101770.44
2022-09-11T03:20:20.139Z,101770.44
2022-09-11T03:22:21.624Z,101775.75
2022-09-11T03:24:23.070Z,101769.56
2022-09-11T03:26:25.791Z,101773.03
2022-09-11T03:28:27.312Z,101772.09
2022-09-11T03:30:28.765Z,101775.63
2022-09-11T03:32:31.911Z,101775.56
2022-09-11T03:34:34.314Z,101782.56
2022-09-11T03:36:36.567Z,101779.84
2022-09-11T03:38:38.171Z,101773.56
2022-09-11T03:40:41.671Z,101777.09
2022-09-11T03:42:43.169Z,101772.63
2022-09-11T03:44:45.566Z,101775.25
2022-09-11T03:46:47.083Z,101777.91
2022-09-11T03:48:48.487Z,101781.47
2022-09-11T03:50:49.918Z,101780.63
2022-09-11T03:52:51.442Z,101785.06
2022-09-11T03:54:52.853Z,101788.63
2022-09-11T03:56:54.277Z,101792.19
2022-09-11T03:58:57.188Z,101780.66
2022-09-11T04:00:59.199Z,101786.94
2022-09-11T04:03:01.937Z,101794.03
2022-09-11T04:05:04.464Z,101790.50
2022-09-11T04:07:05.892Z,101801.09
2022-09-11T04:09:08.983Z,101802.88
2022-09-11T04:11:14.276Z,101811.72
2022-09-11T04:13:16.701Z,101809.09
2022-09-11T04:15:18.155Z,101812.63
2022-09-11T04:17:19.584Z,101813.53
2022-09-11T04:19:21.636Z,101811.84
2022-09-11T04:21:23.091Z,101824.28
2022-09-11T04:23:25.266Z,101816.31
2022-09-11T04:25:26.747Z,101827.78
2022-09-11T04:27:28.222Z,101818.84
2022-09-11T04:29:29.836Z,101818.75
2022-09-11T04:31:31.395Z,101822.25
2022-09-11T04:33:34.762Z,101816.00
2022-09-11T04:35:40.597Z,101818.56
2022-09-11T04:37:42.003Z,101819.34
2022-09-11T04:39:43.501Z,101815.78
2022-09-11T04:41:45.194Z,101815.75
2022-09-11T04:43:47.185Z,101812.13
2022-09-11T04:45:48.708Z,101812.94
2022-09-11T04:47:52.755Z,101813.03
2022-09-11T04:49:55.099Z,101810.38
2022-09-11T04:51:57.912Z,101815.69
2022-09-11T04:53:59.835Z,101818.31
2022-09-11T04:56:15.369Z,101817.34
2022-09-11T04:58:16.813Z,101824.44
2022-09-11T05:00:18.273Z,101825.44
2022-09-11T05:02:20.018Z,101823.75
2022-09-11T05:04:25.992Z,101822.09
2022-09-11T05:06:30.206Z,101821.31
2022-09-11T05:08:33.461Z,101826.72
2022-09-11T05:10:38.319Z,101825.97
2022-09-11T05:12:39.725Z,101826.06
2022-09-11T05:14:41.194Z,101831.50
2022-09-11T05:16:44.063Z,101829.81
2022-09-11T05:18:51.964Z,101828.03
2022-09-11T05:21:01.752Z,101831.63
2022-09-11T05:23:03.328Z,101834.25
2022-09-11T05:25:05.014Z,101839.53
2022-09-11T05:27:07.461Z,101847.47
2022-09-11T05:29:13.373Z,101848.44
2022-09-11T05:31:17.278Z,101850.22
2022-09-11T05:33:18.963Z,101854.72
2022-09-11T05:35:21.366Z,101860.09
2022-09-11T05:37:22.815Z,101855.78
2022-09-11T05:39:24.537Z,101866.34
2022-09-11T05:41:26.562Z,101866.31
2022-09-11T05:43:28.147Z,101871.59
2022-09-11T05:45:29.612Z,101876.00
2022-09-11T05:47:31.032Z,101883.00
2022-09-11T05:49:32.538Z,101876.75
2022-09-11T05:51:37.603Z,101876.75
2022-09-11T05:53:40.739Z,101872.53
2022-09-11T05:55:42.193Z,101870.44
2022-09-11T05:57:43.622Z,101878.16
2022-09-11T05:59:45.069Z,101887.78
2022-09-11T06:01:47.677Z,101884.19
2022-09-11T06:03:49.868Z,101895.72
2022-09-11T06:05:51.286Z,101898.44
2022-09-11T06:07:53.584Z,101892.34
2022-09-11T06:09:56.321Z,101906.50
2022-09-11T06:12:01.681Z,101907.31
2022-09-11T06:14:03.119Z,101902.88
2022-09-11T06:16:05.412Z,101897.56
2022-09-11T06:18:07.693Z,101905.50
2022-09-11T06:20:12.932Z,101910.69
2022-09-11T06:22:14.598Z,101914.09
2022-09-11T06:24:16.060Z,101916.66
2022-09-11T06:26:19.652Z,101911.47
2022-09-11T06:28:24.023Z,101919.31
2022-09-11T06:30:25.530Z,101920.00
2022-09-11T06:32:27.044Z,101925.19
2022-09-11T06:34:28.466Z,101925.97
2022-09-11T06:36:31.488Z,101928.59
2022-09-11T06:38:33.241Z,101927.72
2022-09-11T06:40:37.052Z,101930.38
2022-09-11T06:42:39.412Z,101933.13
2022-09-11T06:44:42.023Z,101929.47
2022-09-11T06:46:44.317Z,101937.53
2022-09-11T06:48:48.218Z,101933.22
2022-09-11T06:50:49.650Z,101937.69
2022-09-11T06:52:51.874Z,101940.56
2022-09-11T06:54:53.387Z,101934.28
2022-09-11T06:56:54.809Z,101936.75
2022-09-11T06:58:56.310Z,101940.19
2022-09-11T07:01:04.952Z,101940.94
2022-09-11T07:03:06.474Z,101945.50
2022-09-11T07:05:10.836Z,101946.16
2022-09-11T07:07:12.251Z,101955.75
2022-09-11T07:09:13.775Z,101953.00
2022-09-11T07:11:15.311Z,101951.22
2022-09-11T07:13:16.793Z,101952.81
2022-09-11T07:15:18.313Z,101951.91
2022-09-11T07:17:19.739Z,101948.28
2022-09-11T07:19:24.825Z,101946.41
2022-09-11T07:21:27.677Z,101942.75
2022-09-11T07:23:29.084Z,101944.44
2022-09-11T07:25:30.559Z,101948.75
2022-09-11T07:27:33.557Z,101954.88
2022-09-11T07:29:35.064Z,101953.03
2022-09-11T07:31:38.143Z,101957.28
2022-09-11T07:33:42.945Z,101952.75
2022-09-11T07:35:44.506Z,101950.91
2022-09-11T07:37:50.615Z,101952.50
2022-09-11T07:39:52.368Z,101950.63
2022-09-11T07:41:53.862Z,101948.75
2022-09-11T07:43:58.005Z,101946.97
2022-09-11T07:45:59.439Z,101957.56
2022-09-11T07:48:01.753Z,101955.72
2022-09-11T07:50:03.757Z,101957.38
2022-09-11T07:52:05.395Z,101965.22
2022-09-11T07:54:08.054Z,101966.84
2022-09-11T07:56:15.611Z,101972.03
2022-09-11T07:58:17.146Z,101971.13
2022-09-11T08:00:18.722Z,101971.03
2022-09-11T08:02:20.321Z,101970.16
2022-09-11T08:04:21.863Z,101965.63
2022-09-11T08:06:24.003Z,101966.50
2022-09-11T08:08:26.150Z,101966.44
2022-09-11T08:10:28.297Z,101972.53
2022-09-11T08:12:31.278Z,101978.66
2022-09-11T08:14:32.766Z,101977.69
2022-09-11T08:16:36.287Z,101979.38
2022-09-11T08:18:37.849Z,101980.88
2022-09-11T08:20:39.338Z,101979.03
2022-09-11T08:22:42.038Z,101987.78
2022-09-11T08:24:43.467Z,101987.69
2022-09-11T08:26:48.755Z,101984.06
2022-09-11T08:28:52.737Z,101983.84
2022-09-11T08:30:58.915Z,101990.88
2022-09-11T08:33:01.405Z,101993.41
2022-09-11T08:35:02.845Z,101997.88
2022-09-11T08:37:04.436Z,102004.59
2022-09-11T08:39:06.038Z,102004.34
2022-09-11T08:41:12.904Z,102003.00
2022-09-11T08:43:22.368Z,102004.53
2022-09-11T08:45:28.558Z,102006.25
2022-09-11T08:47:34.735Z,102015.13
2022-09-11T08:49:42.966Z,102007.06
2022-09-11T08:51:45.408Z,102013.16
2022-09-11T08:53:47.875Z,102013.06
2022-09-11T08:55:53.122Z,102011.09
2022-09-11T08:58:21.706Z,102013.69
2022-09-11T09:00:32.077Z,102014.50
2022-09-11T09:02:42.033Z,102020.59
2022-09-11T09:04:50.927Z,102020.38
2022-09-11T09:07:13.670Z,102023.53
2022-09-11T09:09:35.261Z,102019.63
2022-09-11T09:11:52.626Z,102023.00
2022-09-11T09:14:12.760Z,102022.91
2022-09-11T09:17:03.274Z,102020.88
2022-09-11T09:19:17.288Z,102018.09
2022-09-11T09:21:27.949Z,102016.06
2022-09-11T09:23:35.697Z,102014.03
2022-09-11T09:25:42.093Z,102017.53
2022-09-11T09:27:47.197Z,102014.59
2022-09-11T09:29:55.820Z,102017.72
2022-09-11T09:32:03.467Z,102015.84
2022-09-11T09:34:17.218Z,102026.78
2022-09-11T09:36:41.415Z,102022.31
2022-09-11T09:38:43.652Z,102020.34
2022-09-11T09:40:59.599Z,102025.63
2022-09-11T09:43:08.110Z,102028.25
2022-09-11T09:45:19.133Z,102020.13
2022-09-11T09:47:20.940Z,102022.59
2022-09-11T09:49:29.691Z,102023.16
2022-09-11T09:51:31.143Z,102023.41
2022-09-11T09:54:00.415Z,102029.22
2022-09-11T09:56:04.194Z,102030.03
2022-09-11T09:58:07.129Z,102031.13
2022-09-11T10:00:12.680Z,102025.16
2022-09-11T10:02:40.630Z,102039.63
2022-09-11T10:04:42.233Z,102037.72
2022-09-11T10:06:46.244Z,102033.91
2022-09-11T10:08:47.727Z,102029.91
2022-09-11T10:10:57.243Z,102024.78
2022-09-11T10:13:24.902Z,102022.06
2022-09-11T10:15:26.609Z,102029.53
2022-09-11T10:17:31.345Z,102021.03
2022-09-11T10:19:43.295Z,102029.72
2022-09-11T10:21:44.737Z,102030.53
2022-09-11T10:23:55.285Z,102036.22
2022-09-11T10:25:57.147Z,102033.00
2022-09-11T10:28:08.920Z,102026.00
2022-09-11T10:30:30.102Z,102026.06
2022-09-11T10:32:36.190Z,102031.41
2022-09-11T10:34:40.498Z,102029.66
2022-09-11T10:37:13.775Z,102026.13
2022-09-11T10:39:19.867Z,102029.94
2022-09-11T10:41:27.599Z,102031.13
2022-09-11T10:44:05.434Z,102021.78
2022-09-11T10:46:19.184Z,102021.06
2022-09-11T10:48:23.336Z,102017.03
2022-09-11T10:50:26.834Z,102020.44
2022-09-11T10:52:29.814Z,102024.13
2022-09-11T10:54:55.791Z,102020.84
2022-09-11T10:57:00.334Z,102021.22
2022-09-11T10:59:11.235Z,102017.50
2022-09-11T11:01:13.267Z,102014.13
2022-09-11T11:03:24.927Z,102017.88
2022-09-11T11:05:41.489Z,102018.47
2022-09-11T11:08:16.389Z,102023.47
2022-09-11T11:10:26.850Z,102022.38
2022-09-11T11:12:42.547Z,102023.22
2022-09-11T11:14:59.516Z,102023.72
2022-09-11T11:17:15.173Z,102021.44
2022-09-11T11:19:49.309Z,102018.75
2022-09-11T11:21:53.598Z,102011.66
2022-09-11T11:24:07.876Z,102016.28
2022-09-11T11:26:23.975Z,102013.28
2022-09-11T11:28:46.833Z,102009.03
2022-09-11T11:31:07.100Z,102017.50
2022-09-11T11:33:17.443Z,102018.34
2022-09-11T11:35:31.969Z,102020.19
2022-09-11T11:37:40.448Z,102015.97
2022-09-11T11:40:04.002Z,102013.31
2022-09-11T11:42:26.790Z,102011.53
2022-09-11T11:44:39.755Z,102015.75
2022-09-11T11:46:52.338Z,102020.50
2022-09-11T11:49:05.904Z,102018.69
2022-09-11T11:51:12.634Z,102015.72
2022-09-11T11:53:38.691Z,102013.34
2022-09-11T11:55:45.596Z,102021.25
2022-09-11T11:57:54.141Z,102021.34
2022-09-11T12:00:05.351Z,102025.41
2022-09-11T12:02:09.640Z,102019.63
2022-09-11T12:04:21.780Z,102009.75
2022-09-11T12:06:23.222Z,102016.38
2022-09-11T12:08:24.784Z,102011.94
2022-09-11T12:10:31.454Z,102011.84
2022-09-11T12:12:47.679Z,102016.56
2022-09-11T12:15:02.403Z,102017.91
2022-09-11T12:17:23.118Z,102021.22
2022-09-11T12:19:27.763Z,102018.38
2022-09-11T12:21:31.564Z,102009.78
2022-09-11T12:23:54.580Z,102012.94
2022-09-11T12:26:07.949Z,102019.28
2022-09-11T12:28:25.176Z,102022.56
2022-09-11T12:30:28.642Z,102023.53
2022-09-11T12:32:41.910Z,102018.59
2022-09-11T12:34:43.295Z,102015.66
2022-09-11T12:36:54.040Z,102014.09
2022-09-11T12:39:01.337Z,102011.72
2022-09-11T12:41:13.506Z,102022.69
2022-09-11T12:43:17.636Z,102018.34
2022-09-11T12:45:38.620Z,102012.41
2022-09-11T12:47:40.438Z,102014.66
2022-09-11T12:49:51.358Z,102011.72
2022-09-11T12:52:00.100Z,102008.44
2022-09-11T12:54:11.127Z,102005.91
2022-09-11T12:56:21.897Z,102009.03
2022-09-11T12:58:45.670Z,102011.13
2022-09-11T13:01:12.618Z,102002.38
2022-09-11T13:03:21.776Z,101998.88
2022-09-11T13:05:37.783Z,101995.63
2022-09-11T13:07:44.491Z,101996.91
2022-09-11T13:09:49.668Z,101991.69
2022-09-11T13:11:53.440Z,101991.63
2022-09-11T13:13:54.966Z,101995.41
2022-09-11T13:15:58.356Z,101988.72
2022-09-11T13:17:59.901Z,101994.25
2022-09-11T13:20:10.139Z,101995.22
2022-09-11T13:22:25.050Z,101986.75
2022-09-11T13:24:26.494Z,101987.28
2022-09-11T13:26:32.722Z,101979.13
2022-09-11T13:28:44.980Z,101981.56
2022-09-11T13:31:04.799Z,101982.78
2022-09-11T13:33:08.991Z,101985.38
2022-09-11T13:35:17.005Z,101974.88
2022-09-11T13:37:50.518Z,101984.84
2022-09-11T13:39:52.222Z,101987.44
2022-09-11T13:42:05.251Z,101977.72
2022-09-11T13:44:41.692Z,101983.84
2022-09-11T13:46:51.812Z,101985.25
2022-09-11T13:48:57.960Z,101981.94
2022-09-11T13:50:59.530Z,101979.00
2022-09-11T13:53:01.109Z,101976.09
2022-09-11T13:55:12.394Z,101966.16
2022-09-11T13:57:25.832Z,101972.16
2022-09-11T13:59:44.903Z,101966.97
2022-09-11T14:01:55.831Z,101970.25
2022-09-11T14:03:57.414Z,101967.31
2022-09-11T14:06:01.594Z,101969.06
2022-09-11T14:08:07.578Z,101970.72
2022-09-11T14:10:24.507Z,101970.00
2022-09-11T14:12:27.936Z,101968.19
2022-09-11T14:14:29.719Z,101969.94
2022-09-11T14:16:38.322Z,101970.00
2022-09-11T14:18:56.553Z,101965.34
2022-09-11T14:21:01.682Z,101959.38
2022-09-11T14:23:06.234Z,101959.44
2022-09-11T14:25:21.869Z,101955.28
2022-09-11T14:27:35.104Z,101963.94
2022-09-11T14:29:37.413Z,101957.97
2022-09-11T14:31:46.933Z,101948.00
2022-09-11T14:33:48.654Z,101951.63
2022-09-11T14:35:51.908Z,101956.13
2022-09-11T14:37:53.333Z,101949.66
2022-09-11T14:39:59.057Z,101958.41
2022-09-11T14:42:01.808Z,101947.69
2022-09-11T14:44:03.294Z,101944.03
2022-09-11T14:46:05.133Z,101941.53
2022-09-11T14:48:14.444Z,101937.09
2022-09-11T14:50:15.924Z,101941.44
2022-09-11T14:52:20.386Z,101933.16
2022-09-11T14:54:22.601Z,101931.41
2022-09-11T14:56:24.050Z,101934.34
2022-09-11T14:58:27.049Z,101936.16
2022-09-11T15:00:28.466Z,101936.94
2022-09-11T15:02:29.899Z,101931.56
2022-09-11T15:04:31.369Z,101936.94
2022-09-11T15:06:32.866Z,101931.75
2022-09-11T15:08:34.326Z,101934.19
2022-09-11T15:10:35.893Z,101932.53
2022-09-11T15:12:37.371Z,101929.94
2022-09-11T15:14:58.221Z,101931.56
2022-09-11T15:17:03.056Z,101932.53
2022-09-11T15:19:04.603Z,101936.00
2022-09-11T15:21:06.232Z,101936.78
2022-09-11T15:23:07.725Z,101934.91
2022-09-11T15:25:09.282Z,101936.00
2022-09-11T15:27:10.945Z,101936.25
2022-09-11T15:29:12.418Z,101930.00
2022-09-11T15:31:15.683Z,101930.78
2022-09-11T15:33:17.125Z,101931.56
2022-09-11T15:35:18.625Z,101932.53
2022-09-11T15:37:20.186Z,101931.75
2022-09-11T15:39:24.275Z,101927.41
2022-09-11T15:41:27.964Z,101930.16
2022-09-11T15:43:35.802Z,101931.19
2022-09-11T15:45:42.877Z,101927.81
2022-09-11T15:47:44.499Z,101928.75
2022-09-11T15:49:47.777Z,101923.56
2022-09-11T15:51:50.909Z,101920.97
2022-09-11T15:53:52.356Z,101926.31
2022-09-11T15:56:04.244Z,101923.66
2022-09-11T15:58:05.699Z,101926.41
2022-09-11T16:00:07.953Z,101939.81
2022-09-11T16:02:12.225Z,101931.16
2022-09-11T16:04:18.606Z,101929.41
2022-09-11T16:06:21.064Z,101923.25
2022-09-11T16:08:23.387Z,101930.38
2022-09-11T16:10:24.850Z,101927.84
2022-09-11T16:12:26.394Z,101924.28
2022-09-11T16:14:35.995Z,101935.25
2022-09-11T16:16:37.675Z,101936.13
2022-09-11T16:18:39.114Z,101929.81
2022-09-11T16:20:41.625Z,101928.88
2022-09-11T16:22:44.105Z,101930.75
2022-09-11T16:24:45.649Z,101929.13
2022-09-11T16:26:47.323Z,101929.19
2022-09-11T16:28:48.770Z,101929.19
2022-09-11T16:30:53.821Z,101928.50
2022-09-11T16:32:55.257Z,101922.25
2022-09-11T16:34:57.615Z,101927.78
2022-09-11T16:36:59.883Z,101921.16
2022-09-11T16:39:01.355Z,101921.56
2022-09-11T16:41:09.365Z,101919.13
2022-09-11T16:43:10.853Z,101923.75
2022-09-11T16:45:12.305Z,101919.34
2022-09-11T16:47:13.726Z,101919.50
2022-09-11T16:49:18.374Z,101913.56
2022-09-11T16:51:20.771Z,101910.22
2022-09-11T16:53:23.228Z,101913.94
2022-09-11T16:55:25.393Z,101907.88
2022-09-11T16:57:29.614Z,101913.22
2022-09-11T16:59:31.046Z,101907.88
2022-09-11T17:01:32.533Z,101908.09
2022-09-11T17:03:39.476Z,101898.63
2022-09-11T17:06:01.017Z,101900.91
2022-09-11T17:08:03.229Z,101907.47
2022-09-11T17:10:05.014Z,101902.22
2022-09-11T17:12:06.952Z,101906.94
2022-09-11T17:14:08.357Z,101908.97
2022-09-11T17:16:16.083Z,101910.13
2022-09-11T17:18:18.113Z,101913.19
2022-09-11T17:20:20.016Z,101911.50
2022-09-11T17:22:21.457Z,101913.53
2022-09-11T17:24:24.122Z,101917.38
2022-09-11T17:26:25.627Z,101922.03
2022-09-11T17:28:27.136Z,101917.84
2022-09-11T17:30:28.681Z,101908.28
2022-09-11T17:32:31.233Z,101906.63
2022-09-11T17:34:32.761Z,101907.56
2022-09-11T17:36:34.487Z,101904.97
2022-09-11T17:38:37.197Z,101908.72
2022-09-11T17:40:38.990Z,101907.13
2022-09-11T17:42:40.781Z,101914.50
2022-09-11T17:44:42.333Z,101909.50
2022-09-11T17:46:43.861Z,101918.59
2022-09-11T17:48:46.030Z,101910.78
2022-09-11T17:50:48.750Z,101913.72
2022-09-11T17:52:50.740Z,101909.66
2022-09-11T17:54:52.167Z,101916.22
2022-09-11T17:56:58.013Z,101916.47
2022-09-11T17:59:00.637Z,101911.34
2022-09-11T18:01:02.900Z,101913.34
2022-09-11T18:03:04.460Z,101908.16
2022-09-11T18:05:07.133Z,101916.38
2022-09-11T18:07:08.555Z,101911.38
2022-09-11T18:09:13.892Z,101916.97
2022-09-11T18:11:15.385Z,101919.09
2022-09-11T18:13:16.810Z,101919.28
2022-09-11T18:15:18.808Z,101931.09
2022-09-11T18:17:20.371Z,101927.72
2022-09-11T18:19:22.808Z,101926.16
2022-09-11T18:21:26.000Z,101920.09
2022-09-11T18:23:27.481Z,101921.28
2022-09-11T18:25:30.123Z,101924.16
2022-09-11T18:27:31.585Z,101921.72
2022-09-11T18:29:35.553Z,101921.97
2022-09-11T18:31:40.027Z,101923.94
2022-09-11T18:33:41.569Z,101933.97
2022-09-11T18:35:44.256Z,101930.66
2022-09-11T18:37:45.706Z,101931.78
2022-09-11T18:39:48.671Z,101929.34
2022-09-11T18:41:52.690Z,101925.09
2022-09-11T18:43:55.667Z,101927.09
2022-09-11T18:46:02.223Z,101933.47
2022-09-11T18:48:04.834Z,101931.84
2022-09-11T18:50:07.050Z,101936.44
2022-09-11T18:52:08.820Z,101944.63
2022-09-11T18:54:14.970Z,101941.25
2022-09-11T18:56:16.411Z,101939.78
2022-09-11T18:58:17.823Z,101939.06
2022-09-11T19:00:19.369Z,101948.09
2022-09-11T19:02:20.862Z,101940.25
2022-09-11T19:04:23.304Z,101939.53
2022-09-11T19:06:27.588Z,101943.22
2022-09-11T19:08:29.057Z,101946.91
2022-09-11T19:10:30.562Z,101953.28
2022-09-11T19:12:32.025Z,101956.03
2022-09-11T19:14:35.891Z,101950.00
2022-09-11T19:16:38.529Z,101943.91
2022-09-11T19:18:40.544Z,101942.28
2022-09-11T19:20:43.288Z,101946.84
2022-09-11T19:22:44.712Z,101944.34
2022-09-11T19:24:46.278Z,101952.44
2022-09-11T19:26:47.727Z,101950.78
2022-09-11T19:28:50.429Z,101946.44
2022-09-11T19:31:00.553Z,101948.34
2022-09-11T19:33:02.233Z,101950.31
2022-09-11T19:35:04.759Z,101953.94
2022-09-11T19:37:06.190Z,101954.09
2022-09-11T19:39:09.874Z,101950.66
2022-09-11T19:41:14.580Z,101951.63
2022-09-11T19:43:16.615Z,101954.44
2022-09-11T19:45:18.126Z,101955.47
2022-09-11T19:47:19.555Z,101960.00
2022-09-11T19:49:20.987Z,101962.72
2022-09-11T19:51:23.838Z,101961.06
2022-09-11T19:53:25.273Z,101960.25
2022-09-11T19:55:26.731Z,101962.06
2022-09-11T19:57:28.232Z,101965.66
2022-09-11T19:59:30.127Z,101961.34
2022-09-11T20:01:31.695Z,101969.53
2022-09-11T20:03:33.147Z,101959.22
2022-09-11T20:05:34.560Z,101958.56
2022-09-11T20:07:37.721Z,101964.94
2022-09-11T20:09:40.275Z,101962.38
2022-09-11T20:11:41.733Z,101958.84
2022-09-11T20:13:43.463Z,101960.59
2022-09-11T20:15:45.508Z,101963.28
2022-09-11T20:17:46.944Z,101957.97
2022-09-11T20:19:48.384Z,101957.13
2022-09-11T20:21:49.835Z,101961.56
2022-09-11T20:23:55.467Z,101958.13
2022-09-11T20:26:16.318Z,101961.88
2022-09-11T20:28:18.554Z,101957.47
2022-09-11T20:30:20.055Z,101949.59
2022-09-11T20:32:21.488Z,101952.47
2022-09-11T20:34:27.732Z,101948.38
2022-09-11T20:36:30.098Z,101951.38
2022-09-11T20:38:31.647Z,101952.59
2022-09-11T20:40:36.308Z,101949.25
2022-09-11T20:42:37.916Z,101950.28
2022-09-11T20:44:39.578Z,101958.22
2022-09-11T20:46:41.278Z,101947.50
2022-09-11T20:48:42.767Z,101948.25
2022-09-11T20:50:44.658Z,101949.91
2022-09-11T20:52:46.648Z,101946.31
2022-09-11T20:54:49.043Z,101942.75
2022-09-11T20:56:50.533Z,101939.22
2022-09-11T20:58:52.521Z,101938.34
2022-09-11T21:00:53.977Z,101941.06
2022-09-11T21:02:55.457Z,101949.97
2022-09-11T21:04:56.880Z,101942.09
2022-09-11T21:06:58.303Z,101947.41
2022-09-11T21:09:03.107Z,101943.88
2022-09-11T21:11:05.481Z,101950.09
2022-09-11T21:13:07.022Z,101951.94
2022-09-11T21:15:09.121Z,101952.91
2022-09-11T21:17:10.553Z,101952.03
2022-09-11T21:19:12.041Z,101945.00
2022-09-11T21:21:13.560Z,101952.97
2022-09-11T21:23:15.018Z,101945.09
2022-09-11T21:25:16.657Z,101942.47
2022-09-11T21:27:18.181Z,101942.53
2022-09-11T21:29:19.746Z,101942.56
2022-09-11T21:31:21.351Z,101940.00
2022-09-11T21:33:22.897Z,101938.28
2022-09-11T21:35:24.380Z,101938.31
2022-09-11T21:37:25.846Z,101931.28
2022-09-11T21:39:27.358Z,101934.84
2022-09-11T21:41:28.887Z,101939.31
2022-09-11T21:43:30.516Z,101931.44
2022-09-11T21:45:31.954Z,101940.34
2022-09-11T21:47:33.386Z,101938.72
2022-09-11T21:49:34.804Z,101939.69
2022-09-11T21:51:36.222Z,101936.19
2022-09-11T21:53:38.888Z,101933.56
2022-09-11T21:55:43.057Z,101938.91
2022-09-11T21:57:44.615Z,101928.38
2022-09-11T21:59:46.046Z,101932.97
2022-09-11T22:01:47.495Z,101932.25
2022-09-11T22:03:50.096Z,101934.06
2022-09-11T22:05:51.518Z,101935.84
2022-09-11T22:07:53.438Z,101930.56
2022-09-11T22:09:55.662Z,101937.63
2022-09-11T22:11:59.939Z,101929.72
2022-09-11T22:14:01.674Z,101931.53
2022-09-11T22:16:06.233Z,101927.97
2022-09-11T22:18:08.004Z,101931.59
2022-09-11T22:20:10.027Z,101929.88
2022-09-11T22:22:12.886Z,101938.75
2022-09-11T22:24:14.385Z,101926.44
2022-09-11T22:26:19.255Z,101932.66
2022-09-11T22:28:20.689Z,101936.22
2022-09-11T22:30:23.633Z,101931.91
2022-09-11T22:32:25.386Z,101934.66
2022-09-11T22:34:26.971Z,101933.06
2022-09-11T22:36:29.781Z,101936.66
2022-09-11T22:38:31.217Z,101934.09
2022-09-11T22:40:32.696Z,101927.00
2022-09-11T22:42:34.110Z,101926.09
2022-09-11T22:44:35.549Z,101930.53
2022-09-11T22:46:37.043Z,101927.88
2022-09-11T22:48:38.579Z,101931.44
2022-09-11T22:50:39.988Z,101925.31
2022-09-11T22:52:41.417Z,101928.03
2022-09-11T22:54:44.150Z,101924.59
2022-09-11T22:56:45.565Z,101929.84
2022-09-11T22:58:47.499Z,101921.91
2022-09-11T23:00:50.294Z,101917.44
2022-09-11T23:02:51.853Z,101919.25
2022-09-11T23:05:11.901Z,101916.59
2022-09-11T23:07:15.950Z,101918.41
2022-09-11T23:09:17.427Z,101914.88
2022-09-11T23:11:19.872Z,101917.56
2022-09-11T23:13:21.479Z,101914.09
2022-09-11T23:15:22.968Z,101919.41
2022-09-11T23:17:24.430Z,101913.28
2022-09-11T23:19:25.935Z,101920.44
2022-09-11T23:21:29.500Z,101909.81
2022-09-11T23:23:30.919Z,101917.81
2022-09-11T23:25:33.910Z,101916.06
2022-09-11T23:27:35.384Z,101913.44
2022-09-11T23:29:36.796Z,101914.34
2022-09-11T23:31:38.855Z,101917.03
2022-09-11T23:33:40.870Z,101917.94
2022-09-11T23:35:42.402Z,101911.81
2022-09-11T23:37:45.522Z,101917.19
2022-09-11T23:39:47.217Z,101912.81
2022-09-11T23:41:49.147Z,101913.78
2022-09-11T23:43:51.569Z,101918.25
2022-09-11T23:45:53.056Z,101910.38
2022-09-11T23:47:54.817Z,101909.47
2022-09-11T23:49:57.630Z,101913.06
2022-09-11T23:51:59.032Z,101909.63